sensor_id;sensor_type;location;lat;lon;timestamp;P1;durP1;ratioP1;P2;durP2;ratioP2
36061;SDS011;22123;52.412;20.970;2023-02-02T00:00:59;1.88;;;1.25;;
36061;SDS011;22123;52.412;20.970;2023-02-02T00:03:24;3.90;;;2.20;;
36061;SDS011;22123;52.412;20.970;2023-02-02T00:05:51;3.70;;;2.22;;
36061;SDS011;22123;52.412;20.970;2023-02-02T00:08:18;6.30;;;2.72;;
36061;SDS011;22123;52.412;20.970;2023-02-02T00:10:45;4.13;;;1.60;;
36061;SDS011;22123;52.412;20.970;2023-02-02T00:13:12;2.85;;;1.73;;
36061;SDS011;22123;52.412;20.970;2023-02-02T00:15:38;4.10;;;2.25;;
36061;SDS011;22123;52.412;20.970;2023-02-02T00:18:05;4.90;;;1.75;;
36061;SDS011;22123;52.412;20.970;2023-02-02T00:20:31;7.68;;;2.97;;
36061;SDS011;22123;52.412;20.970;2023-02-02T00:22:57;4.47;;;2.25;;
36061;SDS011;22123;52.412;20.970;2023-02-02T00:25:23;3.88;;;1.85;;
36061;SDS011;22123;52.412;20.970;2023-02-02T00:27:49;3.88;;;2.13;;
36061;SDS011;22123;52.412;20.970;2023-02-02T00:30:15;5.15;;;1.60;;
36061;SDS011;22123;52.412;20.970;2023-02-02T00:32:41;4.25;;;1.92;;
36061;SDS011;22123;52.412;20.970;2023-02-02T00:35:07;2.30;;;1.70;;
36061;SDS011;22123;52.412;20.970;2023-02-02T00:37:33;4.50;;;2.10;;
36061;SDS011;22123;52.412;20.970;2023-02-02T00:39:59;4.47;;;2.25;;
36061;SDS011;22123;52.412;20.970;2023-02-02T00:42:25;4.10;;;2.45;;
36061;SDS011;22123;52.412;20.970;2023-02-02T00:44:51;3.78;;;1.92;;
36061;SDS011;22123;52.412;20.970;2023-02-02T00:47:17;2.92;;;2.05;;
36061;SDS011;22123;52.412;20.970;2023-02-02T00:49:43;7.63;;;2.15;;
36061;SDS011;22123;52.412;20.970;2023-02-02T00:52:09;2.85;;;1.80;;
36061;SDS011;22123;52.412;20.970;2023-02-02T00:54:36;1.98;;;1.48;;
36061;SDS011;22123;52.412;20.970;2023-02-02T00:57:02;3.88;;;1.77;;
36061;SDS011;22123;52.412;20.970;2023-02-02T00:59:27;2.33;;;1.40;;
36061;SDS011;22123;52.412;20.970;2023-02-02T01:01:53;3.42;;;1.65;;
36061;SDS011;22123;52.412;20.970;2023-02-02T01:04:19;3.38;;;1.25;;
36061;SDS011;22123;52.412;20.970;2023-02-02T01:06:45;3.35;;;1.67;;
36061;SDS011;22123;52.412;20.970;2023-02-02T01:09:11;5.32;;;1.83;;
36061;SDS011;22123;52.412;20.970;2023-02-02T01:11:37;1.70;;;1.10;;
36061;SDS011;22123;52.412;20.970;2023-02-02T01:14:03;4.43;;;2.20;;
36061;SDS011;22123;52.412;20.970;2023-02-02T01:16:29;3.63;;;1.58;;
36061;SDS011;22123;52.412;20.970;2023-02-02T01:18:56;2.78;;;1.10;;
36061;SDS011;22123;52.412;20.970;2023-02-02T01:21:21;2.55;;;1.35;;
36061;SDS011;22123;52.412;20.970;2023-02-02T01:23:48;1.52;;;1.10;;
36061;SDS011;22123;52.412;20.970;2023-02-02T01:26:14;1.45;;;0.95;;
36061;SDS011;22123;52.412;20.970;2023-02-02T01:28:40;2.28;;;1.30;;
36061;SDS011;22123;52.412;20.970;2023-02-02T01:31:07;3.35;;;1.40;;
36061;SDS011;22123;52.412;20.970;2023-02-02T01:33:44;3.05;;;1.13;;
36061;SDS011;22123;52.412;20.970;2023-02-02T01:36:12;1.17;;;1.08;;
36061;SDS011;22123;52.412;20.970;2023-02-02T01:38:40;2.88;;;1.23;;
36061;SDS011;22123;52.412;20.970;2023-02-02T01:41:06;1.73;;;0.93;;
36061;SDS011;22123;52.412;20.970;2023-02-02T01:46:50;5.47;;;2.42;;
36061;SDS011;22123;52.412;20.970;2023-02-02T01:48:59;3.38;;;1.33;;
36061;SDS011;22123;52.412;20.970;2023-02-02T01:51:44;1.50;;;0.90;;
36061;SDS011;22123;52.412;20.970;2023-02-02T01:54:16;2.40;;;1.52;;
36061;SDS011;22123;52.412;20.970;2023-02-02T01:56:48;1.15;;;0.90;;
36061;SDS011;22123;52.412;20.970;2023-02-02T01:59:19;2.28;;;1.40;;
36061;SDS011;22123;52.412;20.970;2023-02-02T02:01:46;3.55;;;1.65;;
36061;SDS011;22123;52.412;20.970;2023-02-02T02:04:13;6.05;;;2.35;;
36061;SDS011;22123;52.412;20.970;2023-02-02T02:06:40;6.88;;;1.70;;
36061;SDS011;22123;52.412;20.970;2023-02-02T02:09:06;4.68;;;1.75;;
36061;SDS011;22123;52.412;20.970;2023-02-02T02:11:33;3.13;;;1.52;;
36061;SDS011;22123;52.412;20.970;2023-02-02T02:14:03;4.07;;;2.13;;
36061;SDS011;22123;52.412;20.970;2023-02-02T02:16:35;2.17;;;1.48;;
36061;SDS011;22123;52.412;20.970;2023-02-02T02:22:12;4.03;;;1.30;;
36061;SDS011;22123;52.412;20.970;2023-02-02T02:27:18;2.72;;;1.52;;
36061;SDS011;22123;52.412;20.970;2023-02-02T02:33:22;3.67;;;1.83;;
36061;SDS011;22123;52.412;20.970;2023-02-02T02:36:12;3.95;;;1.60;;
36061;SDS011;22123;52.412;20.970;2023-02-02T02:41:31;3.65;;;1.90;;
36061;SDS011;22123;52.412;20.970;2023-02-02T02:44:06;1.90;;;1.25;;
36061;SDS011;22123;52.412;20.970;2023-02-02T02:46:35;3.25;;;1.17;;
36061;SDS011;22123;52.412;20.970;2023-02-02T02:49:02;3.63;;;1.77;;
36061;SDS011;22123;52.412;20.970;2023-02-02T02:54:03;3.00;;;1.50;;
36061;SDS011;22123;52.412;20.970;2023-02-02T02:56:31;2.22;;;1.38;;
36061;SDS011;22123;52.412;20.970;2023-02-02T03:00:03;2.42;;;1.23;;
36061;SDS011;22123;52.412;20.970;2023-02-02T03:05:06;2.90;;;1.30;;
36061;SDS011;22123;52.412;20.970;2023-02-02T03:07:37;2.60;;;0.93;;
36061;SDS011;22123;52.412;20.970;2023-02-02T03:10:10;2.58;;;1.17;;
36061;SDS011;22123;52.412;20.970;2023-02-02T03:12:42;2.75;;;1.25;;
36061;SDS011;22123;52.412;20.970;2023-02-02T03:15:12;3.92;;;1.88;;
36061;SDS011;22123;52.412;20.970;2023-02-02T03:17:39;2.05;;;1.27;;
36061;SDS011;22123;52.412;20.970;2023-02-02T03:20:06;1.77;;;1.13;;
36061;SDS011;22123;52.412;20.970;2023-02-02T03:22:32;2.08;;;1.30;;
36061;SDS011;22123;52.412;20.970;2023-02-02T03:24:58;1.45;;;1.30;;
36061;SDS011;22123;52.412;20.970;2023-02-02T03:27:24;1.13;;;0.88;;
36061;SDS011;22123;52.412;20.970;2023-02-02T03:29:51;1.42;;;0.93;;
36061;SDS011;22123;52.412;20.970;2023-02-02T03:32:17;4.47;;;1.35;;
36061;SDS011;22123;52.412;20.970;2023-02-02T03:34:45;2.17;;;1.23;;
36061;SDS011;22123;52.412;20.970;2023-02-02T03:37:11;0.88;;;0.47;;
36061;SDS011;22123;52.412;20.970;2023-02-02T03:39:37;1.95;;;1.33;;
36061;SDS011;22123;52.412;20.970;2023-02-02T03:42:03;2.20;;;1.05;;
36061;SDS011;22123;52.412;20.970;2023-02-02T03:44:28;2.95;;;1.20;;
36061;SDS011;22123;52.412;20.970;2023-02-02T03:46:54;2.17;;;1.17;;
36061;SDS011;22123;52.412;20.970;2023-02-02T03:49:20;2.10;;;1.10;;
36061;SDS011;22123;52.412;20.970;2023-02-02T03:51:46;3.58;;;1.33;;
36061;SDS011;22123;52.412;20.970;2023-02-02T03:54:13;1.90;;;1.02;;
36061;SDS011;22123;52.412;20.970;2023-02-02T03:56:39;1.40;;;1.05;;
36061;SDS011;22123;52.412;20.970;2023-02-02T03:59:05;2.45;;;0.98;;
36061;SDS011;22123;52.412;20.970;2023-02-02T04:01:31;1.35;;;0.73;;
36061;SDS011;22123;52.412;20.970;2023-02-02T04:03:57;0.82;;;0.60;;
36061;SDS011;22123;52.412;20.970;2023-02-02T04:06:23;1.73;;;0.95;;
36061;SDS011;22123;52.412;20.970;2023-02-02T04:08:50;1.73;;;1.08;;
36061;SDS011;22123;52.412;20.970;2023-02-02T04:11:16;1.65;;;0.93;;
36061;SDS011;22123;52.412;20.970;2023-02-02T04:13:42;2.47;;;1.30;;
36061;SDS011;22123;52.412;20.970;2023-02-02T04:16:09;1.95;;;1.23;;
36061;SDS011;22123;52.412;20.970;2023-02-02T04:18:36;1.20;;;0.63;;
36061;SDS011;22123;52.412;20.970;2023-02-02T04:21:02;0.90;;;0.60;;
36061;SDS011;22123;52.412;20.970;2023-02-02T04:23:29;0.80;;;0.73;;
36061;SDS011;22123;52.412;20.970;2023-02-02T04:25:55;3.45;;;0.93;;
36061;SDS011;22123;52.412;20.970;2023-02-02T04:28:22;1.77;;;1.13;;
36061;SDS011;22123;52.412;20.970;2023-02-02T04:30:49;4.65;;;1.35;;
36061;SDS011;22123;52.412;20.970;2023-02-02T04:33:16;3.15;;;1.10;;
36061;SDS011;22123;52.412;20.970;2023-02-02T04:35:42;3.90;;;1.60;;
36061;SDS011;22123;52.412;20.970;2023-02-02T04:38:08;0.98;;;0.57;;
36061;SDS011;22123;52.412;20.970;2023-02-02T04:40:40;1.83;;;1.17;;
36061;SDS011;22123;52.412;20.970;2023-02-02T04:43:06;4.97;;;1.05;;
36061;SDS011;22123;52.412;20.970;2023-02-02T04:45:33;1.90;;;1.42;;
36061;SDS011;22123;52.412;20.970;2023-02-02T04:47:59;2.15;;;1.08;;
36061;SDS011;22123;52.412;20.970;2023-02-02T04:50:25;1.38;;;1.02;;
36061;SDS011;22123;52.412;20.970;2023-02-02T04:52:51;7.95;;;2.28;;
36061;SDS011;22123;52.412;20.970;2023-02-02T04:55:17;1.98;;;1.10;;
36061;SDS011;22123;52.412;20.970;2023-02-02T04:57:43;2.35;;;1.77;;
36061;SDS011;22123;52.412;20.970;2023-02-02T05:00:09;3.47;;;0.98;;
36061;SDS011;22123;52.412;20.970;2023-02-02T05:02:37;1.45;;;0.68;;
36061;SDS011;22123;52.412;20.970;2023-02-02T05:05:04;1.85;;;1.55;;
36061;SDS011;22123;52.412;20.970;2023-02-02T05:07:32;2.40;;;1.02;;
36061;SDS011;22123;52.412;20.970;2023-02-02T05:09:58;3.90;;;1.10;;
36061;SDS011;22123;52.412;20.970;2023-02-02T05:12:24;2.25;;;1.42;;
36061;SDS011;22123;52.412;20.970;2023-02-02T05:14:50;2.80;;;1.10;;
36061;SDS011;22123;52.412;20.970;2023-02-02T05:17:16;2.40;;;0.85;;
36061;SDS011;22123;52.412;20.970;2023-02-02T05:19:42;0.93;;;0.70;;
36061;SDS011;22123;52.412;20.970;2023-02-02T05:22:08;2.90;;;0.95;;
36061;SDS011;22123;52.412;20.970;2023-02-02T05:24:33;2.63;;;0.65;;
36061;SDS011;22123;52.412;20.970;2023-02-02T05:26:59;2.67;;;0.80;;
36061;SDS011;22123;52.412;20.970;2023-02-02T05:29:26;2.42;;;1.77;;
36061;SDS011;22123;52.412;20.970;2023-02-02T05:31:52;1.27;;;0.68;;
36061;SDS011;22123;52.412;20.970;2023-02-02T05:34:19;2.97;;;1.23;;
36061;SDS011;22123;52.412;20.970;2023-02-02T05:36:45;0.85;;;0.73;;
36061;SDS011;22123;52.412;20.970;2023-02-02T05:39:11;3.80;;;0.70;;
36061;SDS011;22123;52.412;20.970;2023-02-02T05:41:36;1.48;;;0.50;;
36061;SDS011;22123;52.412;20.970;2023-02-02T05:44:02;6.90;;;2.35;;
36061;SDS011;22123;52.412;20.970;2023-02-02T05:46:29;1.77;;;0.98;;
36061;SDS011;22123;52.412;20.970;2023-02-02T05:48:55;2.45;;;1.20;;
36061;SDS011;22123;52.412;20.970;2023-02-02T05:51:22;2.05;;;0.90;;
36061;SDS011;22123;52.412;20.970;2023-02-02T05:56:17;2.80;;;0.60;;
36061;SDS011;22123;52.412;20.970;2023-02-02T05:58:43;4.22;;;0.85;;
36061;SDS011;22123;52.412;20.970;2023-02-02T06:01:09;1.42;;;1.15;;
36061;SDS011;22123;52.412;20.970;2023-02-02T06:03:35;5.30;;;1.13;;
36061;SDS011;22123;52.412;20.970;2023-02-02T06:06:01;4.35;;;1.20;;
36061;SDS011;22123;52.412;20.970;2023-02-02T06:08:27;1.23;;;0.77;;
36061;SDS011;22123;52.412;20.970;2023-02-02T06:10:53;1.08;;;0.98;;
36061;SDS011;22123;52.412;20.970;2023-02-02T06:13:18;7.70;;;1.50;;
36061;SDS011;22123;52.412;20.970;2023-02-02T06:15:44;3.08;;;1.10;;
36061;SDS011;22123;52.412;20.970;2023-02-02T06:18:10;3.47;;;2.28;;
36061;SDS011;22123;52.412;20.970;2023-02-02T06:20:36;8.25;;;1.73;;
36061;SDS011;22123;52.412;20.970;2023-02-02T06:23:03;5.03;;;1.33;;
36061;SDS011;22123;52.412;20.970;2023-02-02T06:25:30;7.00;;;2.80;;
36061;SDS011;22123;52.412;20.970;2023-02-02T06:27:57;5.10;;;0.85;;
36061;SDS011;22123;52.412;20.970;2023-02-02T06:30:23;3.15;;;0.80;;
36061;SDS011;22123;52.412;20.970;2023-02-02T06:32:49;3.25;;;1.92;;
36061;SDS011;22123;52.412;20.970;2023-02-02T06:35:15;4.95;;;1.20;;
36061;SDS011;22123;52.412;20.970;2023-02-02T06:37:41;2.25;;;1.38;;
36061;SDS011;22123;52.412;20.970;2023-02-02T06:40:07;3.45;;;1.75;;
36061;SDS011;22123;52.412;20.970;2023-02-02T06:42:34;3.55;;;1.27;;
36061;SDS011;22123;52.412;20.970;2023-02-02T06:45:00;1.42;;;0.98;;
36061;SDS011;22123;52.412;20.970;2023-02-02T06:47:26;6.93;;;2.88;;
36061;SDS011;22123;52.412;20.970;2023-02-02T06:49:52;2.38;;;1.13;;
36061;SDS011;22123;52.412;20.970;2023-02-02T06:52:18;2.33;;;1.67;;
36061;SDS011;22123;52.412;20.970;2023-02-02T06:54:44;3.28;;;2.00;;
36061;SDS011;22123;52.412;20.970;2023-02-02T06:57:10;2.63;;;1.23;;
36061;SDS011;22123;52.412;20.970;2023-02-02T06:59:36;4.28;;;1.70;;
36061;SDS011;22123;52.412;20.970;2023-02-02T07:02:02;3.92;;;1.40;;
36061;SDS011;22123;52.412;20.970;2023-02-02T07:04:28;5.47;;;1.63;;
36061;SDS011;22123;52.412;20.970;2023-02-02T07:06:53;7.65;;;3.20;;
36061;SDS011;22123;52.412;20.970;2023-02-02T07:09:19;15.75;;;4.38;;
36061;SDS011;22123;52.412;20.970;2023-02-02T07:11:45;7.60;;;3.83;;
36061;SDS011;22123;52.412;20.970;2023-02-02T07:14:11;2.67;;;1.67;;
36061;SDS011;22123;52.412;20.970;2023-02-02T07:16:37;7.05;;;1.17;;
36061;SDS011;22123;52.412;20.970;2023-02-02T07:19:03;4.90;;;1.30;;
36061;SDS011;22123;52.412;20.970;2023-02-02T07:21:29;1.50;;;0.73;;
36061;SDS011;22123;52.412;20.970;2023-02-02T07:23:56;4.78;;;1.25;;
36061;SDS011;22123;52.412;20.970;2023-02-02T07:26:22;1.58;;;1.27;;
36061;SDS011;22123;52.412;20.970;2023-02-02T07:28:48;7.38;;;2.55;;
36061;SDS011;22123;52.412;20.970;2023-02-02T07:31:20;1.75;;;0.88;;
36061;SDS011;22123;52.412;20.970;2023-02-02T07:33:55;2.67;;;0.80;;
36061;SDS011;22123;52.412;20.970;2023-02-02T07:36:22;4.30;;;1.15;;
36061;SDS011;22123;52.412;20.970;2023-02-02T07:38:49;5.55;;;1.65;;
36061;SDS011;22123;52.412;20.970;2023-02-02T07:41:16;2.50;;;1.00;;
36061;SDS011;22123;52.412;20.970;2023-02-02T07:43:45;2.13;;;1.17;;
36061;SDS011;22123;52.412;20.970;2023-02-02T07:46:11;4.72;;;1.25;;
36061;SDS011;22123;52.412;20.970;2023-02-02T07:48:37;3.25;;;1.50;;
36061;SDS011;22123;52.412;20.970;2023-02-02T07:51:04;1.80;;;0.75;;
36061;SDS011;22123;52.412;20.970;2023-02-02T07:53:32;1.95;;;1.13;;
36061;SDS011;22123;52.412;20.970;2023-02-02T07:58:40;1.65;;;0.73;;
36061;SDS011;22123;52.412;20.970;2023-02-02T08:01:08;2.47;;;1.60;;
36061;SDS011;22123;52.412;20.970;2023-02-02T08:03:36;2.10;;;1.00;;
36061;SDS011;22123;52.412;20.970;2023-02-02T08:06:16;2.97;;;1.20;;
36061;SDS011;22123;52.412;20.970;2023-02-02T08:08:45;2.03;;;1.27;;
36061;SDS011;22123;52.412;20.970;2023-02-02T08:11:13;2.55;;;1.63;;
36061;SDS011;22123;52.412;20.970;2023-02-02T08:13:41;7.15;;;2.13;;
36061;SDS011;22123;52.412;20.970;2023-02-02T08:16:08;2.58;;;1.55;;
36061;SDS011;22123;52.412;20.970;2023-02-02T08:18:34;5.05;;;1.80;;
36061;SDS011;22123;52.412;20.970;2023-02-02T08:21:01;1.55;;;1.20;;
36061;SDS011;22123;52.412;20.970;2023-02-02T08:23:29;1.42;;;1.15;;
36061;SDS011;22123;52.412;20.970;2023-02-02T08:26:12;3.92;;;1.65;;
36061;SDS011;22123;52.412;20.970;2023-02-02T08:28:47;5.25;;;2.38;;
36061;SDS011;22123;52.412;20.970;2023-02-02T08:31:17;4.57;;;2.65;;
36061;SDS011;22123;52.412;20.970;2023-02-02T08:33:45;4.25;;;2.05;;
36061;SDS011;22123;52.412;20.970;2023-02-02T08:36:11;2.28;;;1.70;;
36061;SDS011;22123;52.412;20.970;2023-02-02T08:38:38;2.15;;;1.38;;
36061;SDS011;22123;52.412;20.970;2023-02-02T08:41:09;2.60;;;1.35;;
36061;SDS011;22123;52.412;20.970;2023-02-02T08:43:36;3.25;;;2.10;;
36061;SDS011;22123;52.412;20.970;2023-02-02T08:46:03;4.40;;;1.90;;
36061;SDS011;22123;52.412;20.970;2023-02-02T08:48:29;3.80;;;2.22;;
36061;SDS011;22123;52.412;20.970;2023-02-02T08:50:56;2.67;;;1.75;;
36061;SDS011;22123;52.412;20.970;2023-02-02T08:53:23;1.20;;;1.00;;
36061;SDS011;22123;52.412;20.970;2023-02-02T08:55:56;2.95;;;1.27;;
36061;SDS011;22123;52.412;20.970;2023-02-02T08:58:27;2.65;;;1.00;;
36061;SDS011;22123;52.412;20.970;2023-02-02T09:00:53;3.13;;;1.67;;
36061;SDS011;22123;52.412;20.970;2023-02-02T09:03:19;2.80;;;1.65;;
36061;SDS011;22123;52.412;20.970;2023-02-02T09:05:45;3.25;;;2.00;;
36061;SDS011;22123;52.412;20.970;2023-02-02T09:08:11;4.05;;;1.80;;
36061;SDS011;22123;52.412;20.970;2023-02-02T09:10:37;2.70;;;1.70;;
36061;SDS011;22123;52.412;20.970;2023-02-02T09:13:03;2.95;;;1.35;;
36061;SDS011;22123;52.412;20.970;2023-02-02T09:15:29;5.10;;;1.10;;
36061;SDS011;22123;52.412;20.970;2023-02-02T09:18:03;2.00;;;0.98;;
36061;SDS011;22123;52.412;20.970;2023-02-02T09:20:29;1.55;;;1.15;;
36061;SDS011;22123;52.412;20.970;2023-02-02T09:22:55;2.40;;;1.13;;
36061;SDS011;22123;52.412;20.970;2023-02-02T09:25:21;2.20;;;1.27;;
36061;SDS011;22123;52.412;20.970;2023-02-02T09:27:47;2.38;;;1.50;;
36061;SDS011;22123;52.412;20.970;2023-02-02T09:30:13;3.17;;;1.40;;
36061;SDS011;22123;52.412;20.970;2023-02-02T09:32:39;3.42;;;1.30;;
36061;SDS011;22123;52.412;20.970;2023-02-02T09:35:05;5.60;;;1.42;;
36061;SDS011;22123;52.412;20.970;2023-02-02T09:37:34;2.55;;;1.27;;
36061;SDS011;22123;52.412;20.970;2023-02-02T09:40:00;2.13;;;1.30;;
36061;SDS011;22123;52.412;20.970;2023-02-02T09:50:48;6.43;;;1.45;;
36061;SDS011;22123;52.412;20.970;2023-02-02T09:56:12;7.65;;;1.95;;
36061;SDS011;22123;52.412;20.970;2023-02-02T10:56:10;4.13;;;1.88;;
36061;SDS011;22123;52.412;20.970;2023-02-02T10:58:43;3.17;;;1.60;;
36061;SDS011;22123;52.412;20.970;2023-02-02T11:01:26;4.50;;;2.13;;
36061;SDS011;22123;52.412;20.970;2023-02-02T11:03:52;6.38;;;3.20;;
36061;SDS011;22123;52.412;20.970;2023-02-02T11:06:18;9.27;;;3.17;;
36061;SDS011;22123;52.412;20.970;2023-02-02T11:08:47;4.78;;;1.98;;
36061;SDS011;22123;52.412;20.970;2023-02-02T11:16:32;9.65;;;3.30;;
36061;SDS011;22123;52.412;20.970;2023-02-02T11:18:59;16.35;;;6.43;;
36061;SDS011;22123;52.412;20.970;2023-02-02T11:21:30;8.35;;;4.60;;
36061;SDS011;22123;52.412;20.970;2023-02-02T11:26:26;15.75;;;7.78;;
36061;SDS011;22123;52.412;20.970;2023-02-02T11:29:14;20.17;;;7.50;;
36061;SDS011;22123;52.412;20.970;2023-02-02T11:31:46;6.93;;;4.60;;
36061;SDS011;22123;52.412;20.970;2023-02-02T11:34:14;6.18;;;3.67;;
36061;SDS011;22123;52.412;20.970;2023-02-02T11:36:59;5.38;;;3.10;;
36061;SDS011;22123;52.412;20.970;2023-02-02T11:39:35;8.80;;;3.85;;
36061;SDS011;22123;52.412;20.970;2023-02-02T11:42:03;12.63;;;5.95;;
36061;SDS011;22123;52.412;20.970;2023-02-02T11:44:32;6.80;;;3.67;;
36061;SDS011;22123;52.412;20.970;2023-02-02T11:46:58;6.38;;;3.25;;
36061;SDS011;22123;52.412;20.970;2023-02-02T11:49:25;8.32;;;4.20;;
36061;SDS011;22123;52.412;20.970;2023-02-02T11:51:59;10.32;;;4.00;;
36061;SDS011;22123;52.412;20.970;2023-02-02T11:54:34;3.00;;;2.47;;
36061;SDS011;22123;52.412;20.970;2023-02-02T11:57:03;4.10;;;2.55;;
36061;SDS011;22123;52.412;20.970;2023-02-02T11:59:35;9.57;;;3.20;;
36061;SDS011;22123;52.412;20.970;2023-02-02T12:04:39;4.50;;;2.20;;
36061;SDS011;22123;52.412;20.970;2023-02-02T12:07:21;5.32;;;2.03;;
36061;SDS011;22123;52.412;20.970;2023-02-02T12:09:50;4.05;;;2.30;;
36061;SDS011;22123;52.412;20.970;2023-02-02T12:17:55;5.47;;;2.17;;
36061;SDS011;22123;52.412;20.970;2023-02-02T12:31:44;1.77;;;1.17;;
36061;SDS011;22123;52.412;20.970;2023-02-02T12:42:27;4.18;;;1.85;;
36061;SDS011;22123;52.412;20.970;2023-02-02T12:56:57;3.40;;;1.25;;
36061;SDS011;22123;52.412;20.970;2023-02-02T13:10:51;2.47;;;1.33;;
36061;SDS011;22123;52.412;20.970;2023-02-02T13:13:23;2.50;;;1.48;;
36061;SDS011;22123;52.412;20.970;2023-02-02T13:15:56;2.00;;;1.15;;
36061;SDS011;22123;52.412;20.970;2023-02-02T13:18:29;3.30;;;1.52;;
36061;SDS011;22123;52.412;20.970;2023-02-02T13:21:09;2.85;;;1.48;;
36061;SDS011;22123;52.412;20.970;2023-02-02T13:23:48;3.17;;;1.45;;
36061;SDS011;22123;52.412;20.970;2023-02-02T13:26:20;1.98;;;0.93;;
36061;SDS011;22123;52.412;20.970;2023-02-02T13:31:49;7.72;;;2.25;;
36061;SDS011;22123;52.412;20.970;2023-02-02T13:39:41;2.10;;;1.38;;
36061;SDS011;22123;52.412;20.970;2023-02-02T14:05:28;5.53;;;2.15;;
36061;SDS011;22123;52.412;20.970;2023-02-02T14:10:33;3.17;;;1.75;;
36061;SDS011;22123;52.412;20.970;2023-02-02T14:13:14;4.40;;;1.30;;
36061;SDS011;22123;52.412;20.970;2023-02-02T14:15:43;2.78;;;1.30;;
36061;SDS011;22123;52.412;20.970;2023-02-02T14:18:09;1.80;;;1.48;;
36061;SDS011;22123;52.412;20.970;2023-02-02T14:20:40;1.23;;;0.90;;
36061;SDS011;22123;52.412;20.970;2023-02-02T14:26:12;3.47;;;1.38;;
36061;SDS011;22123;52.412;20.970;2023-02-02T14:28:47;1.73;;;1.00;;
36061;SDS011;22123;52.412;20.970;2023-02-02T14:31:15;3.95;;;1.20;;
36061;SDS011;22123;52.412;20.970;2023-02-02T14:33:41;2.20;;;0.90;;
36061;SDS011;22123;52.412;20.970;2023-02-02T14:36:11;5.93;;;1.38;;
36061;SDS011;22123;52.412;20.970;2023-02-02T14:39:00;3.17;;;1.58;;
36061;SDS011;22123;52.412;20.970;2023-02-02T14:41:36;3.00;;;1.40;;
36061;SDS011;22123;52.412;20.970;2023-02-02T14:44:13;4.20;;;1.43;;
36061;SDS011;22123;52.412;20.970;2023-02-02T14:46:39;3.55;;;1.40;;
36061;SDS011;22123;52.412;20.970;2023-02-02T14:49:06;1.75;;;1.00;;
36061;SDS011;22123;52.412;20.970;2023-02-02T14:51:43;2.40;;;1.38;;
36061;SDS011;22123;52.412;20.970;2023-02-02T14:54:51;1.42;;;0.65;;
36061;SDS011;22123;52.412;20.970;2023-02-02T14:57:18;7.90;;;0.85;;
36061;SDS011;22123;52.412;20.970;2023-02-02T14:59:48;1.50;;;1.08;;
36061;SDS011;22123;52.412;20.970;2023-02-02T15:04:47;0.80;;;0.60;;
36061;SDS011;22123;52.412;20.970;2023-02-02T15:09:51;1.25;;;0.80;;
36061;SDS011;22123;52.412;20.970;2023-02-02T15:13:04;3.88;;;0.60;;
36061;SDS011;22123;52.412;20.970;2023-02-02T15:15:06;1.75;;;0.77;;
36061;SDS011;22123;52.412;20.970;2023-02-02T15:25:25;1.35;;;0.63;;
36061;SDS011;22123;52.412;20.970;2023-02-02T15:28:31;4.03;;;1.50;;
36061;SDS011;22123;52.412;20.970;2023-02-02T15:34:01;1.13;;;0.57;;
36061;SDS011;22123;52.412;20.970;2023-02-02T15:36:35;2.63;;;0.43;;
36061;SDS011;22123;52.412;20.970;2023-02-02T15:39:18;0.90;;;0.52;;
36061;SDS011;22123;52.412;20.970;2023-02-02T15:41:50;5.85;;;1.10;;
36061;SDS011;22123;52.412;20.970;2023-02-02T15:44:25;1.25;;;1.00;;
36061;SDS011;22123;52.412;20.970;2023-02-02T15:46:52;5.45;;;1.15;;
36061;SDS011;22123;52.412;20.970;2023-02-02T15:49:29;5.95;;;1.30;;
36061;SDS011;22123;52.412;20.970;2023-02-02T15:51:58;5.38;;;1.73;;
36061;SDS011;22123;52.412;20.970;2023-02-02T15:54:36;1.98;;;1.05;;
36061;SDS011;22123;52.412;20.970;2023-02-02T15:57:02;1.23;;;0.85;;
36061;SDS011;22123;52.412;20.970;2023-02-02T15:59:45;4.13;;;1.10;;
36061;SDS011;22123;52.412;20.970;2023-02-02T16:04:38;4.05;;;1.65;;
36061;SDS011;22123;52.412;20.970;2023-02-02T16:07:05;3.20;;;1.83;;
36061;SDS011;22123;52.412;20.970;2023-02-02T16:09:37;6.47;;;2.70;;
36061;SDS011;22123;52.412;20.970;2023-02-02T16:12:04;13.32;;;3.95;;
36061;SDS011;22123;52.412;20.970;2023-02-02T16:14:31;23.50;;;7.75;;
36061;SDS011;22123;52.412;20.970;2023-02-02T16:17:09;35.20;;;10.52;;
36061;SDS011;22123;52.412;20.970;2023-02-02T16:19:43;10.52;;;6.05;;
36061;SDS011;22123;52.412;20.970;2023-02-02T16:22:12;4.85;;;2.47;;
36061;SDS011;22123;52.412;20.970;2023-02-02T16:24:52;5.88;;;2.95;;
36061;SDS011;22123;52.412;20.970;2023-02-02T16:27:21;3.88;;;1.63;;
36061;SDS011;22123;52.412;20.970;2023-02-02T16:29:49;2.13;;;1.17;;
36061;SDS011;22123;52.412;20.970;2023-02-02T16:32:32;1.95;;;1.02;;
36061;SDS011;22123;52.412;20.970;2023-02-02T16:35:03;2.30;;;1.08;;
36061;SDS011;22123;52.412;20.970;2023-02-02T16:37:31;1.10;;;0.75;;
36061;SDS011;22123;52.412;20.970;2023-02-02T16:43:03;4.03;;;0.85;;
36061;SDS011;22123;52.412;20.970;2023-02-02T16:45:32;2.92;;;1.15;;
36061;SDS011;22123;52.412;20.970;2023-02-02T16:51:19;7.97;;;2.05;;
36061;SDS011;22123;52.412;20.970;2023-02-02T16:56:58;3.28;;;1.10;;
36061;SDS011;22123;52.412;20.970;2023-02-02T16:59:30;3.83;;;1.70;;
36061;SDS011;22123;52.412;20.970;2023-02-02T17:02:22;3.55;;;0.82;;
36061;SDS011;22123;52.412;20.970;2023-02-02T17:04:53;1.70;;;0.90;;
36061;SDS011;22123;52.412;20.970;2023-02-02T17:07:32;2.83;;;0.65;;
36061;SDS011;22123;52.412;20.970;2023-02-02T17:10:13;2.75;;;1.25;;
36061;SDS011;22123;52.412;20.970;2023-02-02T17:12:46;3.72;;;1.73;;
36061;SDS011;22123;52.412;20.970;2023-02-02T17:17:44;3.65;;;1.02;;
36061;SDS011;22123;52.412;20.970;2023-02-02T17:22:38;1.85;;;0.88;;
36061;SDS011;22123;52.412;20.970;2023-02-02T17:25:08;1.92;;;1.08;;
36061;SDS011;22123;52.412;20.970;2023-02-02T17:27:40;1.55;;;0.88;;
36061;SDS011;22123;52.412;20.970;2023-02-02T17:30:06;6.05;;;1.33;;
36061;SDS011;22123;52.412;20.970;2023-02-02T17:32:34;2.83;;;1.35;;
36061;SDS011;22123;52.412;20.970;2023-02-02T17:35:00;3.08;;;1.30;;
36061;SDS011;22123;52.412;20.970;2023-02-02T17:37:26;2.25;;;1.27;;
36061;SDS011;22123;52.412;20.970;2023-02-02T17:39:52;8.57;;;2.97;;
36061;SDS011;22123;52.412;20.970;2023-02-02T17:42:25;8.20;;;2.97;;
36061;SDS011;22123;52.412;20.970;2023-02-02T17:44:52;1.20;;;0.73;;
36061;SDS011;22123;52.412;20.970;2023-02-02T17:47:18;2.42;;;1.17;;
36061;SDS011;22123;52.412;20.970;2023-02-02T17:49:44;1.52;;;0.70;;
36061;SDS011;22123;52.412;20.970;2023-02-02T17:52:10;2.25;;;1.05;;
36061;SDS011;22123;52.412;20.970;2023-02-02T17:54:37;1.63;;;0.55;;
36061;SDS011;22123;52.412;20.970;2023-02-02T17:57:03;1.15;;;0.82;;
36061;SDS011;22123;52.412;20.970;2023-02-02T17:59:29;5.18;;;1.25;;
36061;SDS011;22123;52.412;20.970;2023-02-02T18:01:57;2.15;;;1.27;;
36061;SDS011;22123;52.412;20.970;2023-02-02T18:04:23;2.05;;;1.08;;
36061;SDS011;22123;52.412;20.970;2023-02-02T18:06:49;1.65;;;0.95;;
36061;SDS011;22123;52.412;20.970;2023-02-02T18:09:15;3.83;;;1.13;;
36061;SDS011;22123;52.412;20.970;2023-02-02T18:11:41;5.65;;;0.90;;
36061;SDS011;22123;52.412;20.970;2023-02-02T18:14:07;3.65;;;1.33;;
36061;SDS011;22123;52.412;20.970;2023-02-02T18:16:33;2.15;;;1.30;;
36061;SDS011;22123;52.412;20.970;2023-02-02T18:18:59;2.22;;;0.80;;
36061;SDS011;22123;52.412;20.970;2023-02-02T18:21:25;1.75;;;1.08;;
36061;SDS011;22123;52.412;20.970;2023-02-02T18:23:51;2.45;;;1.20;;
36061;SDS011;22123;52.412;20.970;2023-02-02T18:26:18;3.55;;;0.90;;